Time;durP1;ratioP1;P1;durP2;ratioP2;P2;SDS_P1;SDS_P2;PMS_P1;PMS_P2;Temp;Humidity;BMP_temperature;BMP_pressure;BME280_temperature;BME280_humidity;BME280_pressure;Samples;Min_cycle;Max_cycle;Signal;HPM_P1;HPM_P2
2023/05/08 00:01:15;;;;;;;17.73;15.85;;;13.20;99.90;;;;;;5043072;28;20728;-74
2023/05/08 00:03:41;;;;;;;20.95;16.58;;;13.10;99.90;;;;;;5058648;28;20086;-75
2023/05/08 00:06:07;;;;;;;18.67;16.58;;;13.10;99.90;;;;;;5055974;28;20048;-74
2023/05/08 00:08:33;;;;;;;18.60;15.07;;;13.00;99.90;;;;;;5028391;28;20033;-75
2023/05/08 00:10:59;;;;;;;17.17;15.38;;;13.00;99.90;;;;;;5030361;28;20126;-75
2023/05/08 00:13:25;;;;;;;18.50;16.23;;;12.90;99.90;;;;;;5047947;28;20299;-75
2023/05/08 00:15:51;;;;;;;19.15;15.68;;;12.90;99.90;;;;;;5045440;28;20482;-75
2023/05/08 00:18:16;;;;;;;16.90;14.80;;;12.80;99.90;;;;;;5058002;28;20040;-74
2023/05/08 00:20:42;;;;;;;17.75;15.82;;;12.80;99.90;;;;;;5057592;28;20059;-75
2023/05/08 00:23:10;;;;;;;16.95;15.15;;;12.80;99.90;;;;;;5047705;28;20059;-73
2023/05/08 00:25:36;;;;;;;17.98;15.77;;;12.80;99.90;;;;;;5062667;28;20127;-73
2023/05/08 00:28:02;;;;;;;17.02;15.18;;;12.70;99.90;;;;;;5028344;28;20502;-73
2023/05/08 00:30:27;;;;;;;17.70;15.52;;;12.60;99.90;;;;;;5053918;28;20094;-75
2023/05/08 00:32:55;;;;;;;17.58;15.40;;;12.60;99.90;;;;;;5047298;28;20264;-75
2023/05/08 00:35:21;;;;;;;17.92;15.23;;;12.60;99.90;;;;;;5060326;28;20052;-75
2023/05/08 00:37:46;;;;;;;17.42;15.57;;;12.50;99.90;;;;;;5057569;28;21111;-74
2023/05/08 00:40:12;;;;;;;17.25;14.98;;;12.50;99.90;;;;;;5042105;28;20048;-74
2023/05/08 00:42:38;;;;;;;18.25;15.93;;;12.40;99.90;;;;;;5055408;28;20053;-73
2023/05/08 00:45:05;;;;;;;18.70;16.08;;;12.40;99.90;;;;;;5042114;28;20098;-73
2023/05/08 00:47:31;;;;;;;16.85;15.05;;;12.40;99.90;;;;;;5065032;28;20056;-74
2023/05/08 00:49:58;;;;;;;17.92;15.65;;;12.30;99.90;;;;;;5043322;28;20080;-75
2023/05/08 00:52:30;;;;;;;18.92;15.73;;;12.30;99.90;;;;;;5055990;28;20044;-72
2023/05/08 00:54:56;;;;;;;16.83;15.02;;;12.20;99.90;;;;;;5051328;28;20036;-75
2023/05/08 00:57:23;;;;;;;16.77;14.73;;;12.20;99.90;;;;;;5057514;28;20044;-76
2023/05/08 00:59:50;;;;;;;16.77;14.98;;;12.10;99.90;;;;;;5057664;28;20049;-76
2023/05/08 01:02:19;;;;;;;16.75;14.95;;;12.10;99.90;;;;;;5045443;28;20050;-74
2023/05/08 01:04:47;;;;;;;17.88;15.60;;;12.10;99.90;;;;;;5065340;28;20056;-76
2023/05/08 01:07:13;;;;;;;18.23;14.85;;;12.00;99.90;;;;;;5057641;28;20505;-75
2023/05/08 01:09:38;;;;;;;17.30;15.50;;;12.00;99.90;;;;;;5064977;28;20033;-75
2023/05/08 01:12:07;;;;;;;17.70;15.50;;;12.00;99.90;;;;;;5057399;28;20036;-75
2023/05/08 01:14:56;;;;;;;19.08;15.77;;;12.00;99.90;;;;;;5049511;28;20050;-77
2023/05/08 01:17:51;;;;;;;19.75;16.27;;;11.90;99.90;;;;;;5061988;28;20063;-76
2023/05/08 01:20:42;;;;;;;17.58;15.38;;;11.90;99.90;;;;;;5060958;28;20131;-76
2023/05/08 01:23:26;;;;;;;19.40;16.45;;;11.80;99.90;;;;;;5059927;28;20495;-75
2023/05/08 01:26:24;;;;;;;17.67;15.77;;;11.80;99.90;;;;;;5063184;28;20044;-76
2023/05/08 01:29:17;;;;;;;18.35;16.02;;;11.70;99.90;;;;;;5057353;28;20062;-74
2023/05/08 01:32:14;;;;;;;17.40;15.48;;;11.60;99.90;;;;;;5054223;28;20762;-75
2023/05/08 01:35:06;;;;;;;19.42;16.27;;;11.60;99.90;;;;;;5060006;28;20395;-74
2023/05/08 01:37:47;;;;;;;19.60;16.70;;;11.60;99.90;;;;;;5042446;28;20139;-76
2023/05/08 01:40:32;;;;;;;18.15;15.45;;;11.50;99.90;;;;;;5056377;28;20049;-72
2023/05/08 01:43:22;;;;;;;19.33;17.10;;;11.50;99.90;;;;;;5056467;28;20056;-74
2023/05/08 01:45:50;;;;;;;18.50;16.58;;;11.50;99.90;;;;;;5047690;28;20052;-75
2023/05/08 01:48:24;;;;;;;17.85;15.95;;;11.40;99.90;;;;;;5057091;28;20119;-74
2023/05/08 01:50:57;;;;;;;18.38;16.02;;;11.40;99.90;;;;;;5058733;28;20066;-74
2023/05/08 01:53:29;;;;;;;18.27;16.13;;;11.40;99.90;;;;;;5053322;28;20493;-75
2023/05/08 01:56:04;;;;;;;18.63;16.42;;;11.40;99.90;;;;;;5063775;28;20110;-73
2023/05/08 01:58:32;;;;;;;19.00;16.15;;;11.40;99.90;;;;;;5056345;28;20082;-73
2023/05/08 02:01:01;;;;;;;18.27;15.75;;;11.40;99.90;;;;;;5026217;28;20479;-75
2023/05/08 02:03:30;;;;;;;19.00;15.57;;;11.30;99.90;;;;;;5053549;28;20052;-77
2023/05/08 02:05:58;;;;;;;17.30;15.35;;;11.30;99.90;;;;;;5045086;28;20036;-75
2023/05/08 02:08:25;;;;;;;18.67;15.60;;;11.30;99.90;;;;;;5062480;28;20052;-73
2023/05/08 02:10:52;;;;;;;18.83;16.25;;;11.30;99.90;;;;;;5044601;28;20059;-75
2023/05/08 02:13:20;;;;;;;19.25;16.48;;;11.30;99.90;;;;;;5041698;28;20673;-75
2023/05/08 02:15:52;;;;;;;19.55;17.42;;;11.20;99.90;;;;;;5052560;28;20460;-74
2023/05/08 02:18:21;;;;;;;19.17;15.95;;;11.20;99.90;;;;;;5046898;28;20070;-75
2023/05/08 02:20:49;;;;;;;18.30;15.93;;;11.20;99.90;;;;;;5053604;28;21030;-73
2023/05/08 02:23:16;;;;;;;21.17;16.63;;;11.20;99.90;;;;;;5063907;28;20039;-74
2023/05/08 02:25:44;;;;;;;18.95;16.77;;;11.20;99.90;;;;;;5044026;28;20039;-75
2023/05/08 02:28:10;;;;;;;19.55;17.40;;;11.20;99.90;;;;;;5041483;28;20044;-73
2023/05/08 02:30:37;;;;;;;19.23;16.85;;;11.20;99.90;;;;;;5054363;28;20521;-75
2023/05/08 02:33:07;;;;;;;18.48;16.35;;;11.20;99.90;;;;;;5057261;28;20131;-74
2023/05/08 02:35:34;;;;;;;17.52;15.63;;;11.20;99.90;;;;;;5044129;28;20078;-76
2023/05/08 02:38:00;;;;;;;18.65;16.55;;;11.20;99.90;;;;;;5054520;28;20594;-74
2023/05/08 02:40:30;;;;;;;20.30;16.55;;;11.20;99.90;;;;;;5060915;28;20055;-73
2023/05/08 02:42:56;;;;;;;17.33;15.45;;;11.20;99.90;;;;;;5029241;28;20052;-73
2023/05/08 02:45:31;;;;;;;18.33;16.27;;;11.10;99.90;;;;;;5042580;28;20101;-75
2023/05/08 02:48:14;;;;;;;16.80;14.98;;;11.10;99.90;;;;;;5059818;28;20494;-74
2023/05/08 02:51:12;;;;;;;18.73;16.10;;;11.10;99.90;;;;;;5051778;28;20052;-75
2023/05/08 02:53:47;;;;;;;18.08;15.73;;;11.00;99.90;;;;;;5041072;28;20493;-75
2023/05/08 02:56:33;;;;;;;17.83;15.85;;;11.00;99.90;;;;;;5051967;28;20388;-73
2023/05/08 02:59:42;;;;;;;21.02;16.33;;;11.00;99.90;;;;;;5052790;28;20041;-74
2023/05/08 03:02:16;;;;;;;19.17;16.30;;;10.90;99.90;;;;;;5056763;28;20410;-74
2023/05/08 03:05:02;;;;;;;21.38;14.88;;;10.90;99.90;;;;;;5053512;28;20044;-76
2023/05/08 03:07:29;;;;;;;19.17;16.27;;;10.80;99.90;;;;;;5043834;28;20036;-74
2023/05/08 03:10:01;;;;;;;21.25;16.55;;;10.80;99.90;;;;;;5058770;28;20052;-75
2023/05/08 03:12:31;;;;;;;20.38;17.08;;;10.80;99.90;;;;;;5043887;28;20106;-75
2023/05/08 03:15:04;;;;;;;18.58;16.08;;;10.80;99.90;;;;;;5047361;28;20136;-74
2023/05/08 03:17:33;;;;;;;19.58;16.52;;;10.70;99.90;;;;;;5058079;28;20052;-76
2023/05/08 03:20:04;;;;;;;17.77;15.60;;;10.70;99.90;;;;;;5044744;28;20052;-75
2023/05/08 03:22:33;;;;;;;20.38;16.95;;;10.70;99.90;;;;;;5044133;28;20048;-73
2023/05/08 03:25:09;;;;;;;18.50;16.48;;;10.70;99.90;;;;;;5055955;28;20257;-75
2023/05/08 03:27:36;;;;;;;20.70;16.25;;;10.70;99.90;;;;;;5048753;28;20133;-75
2023/05/08 03:30:06;;;;;;;21.58;16.38;;;10.60;99.90;;;;;;5045782;28;20048;-76
2023/05/08 03:32:33;;;;;;;19.33;15.80;;;10.60;99.90;;;;;;5053764;28;20586;-74
2023/05/08 03:35:01;;;;;;;19.88;16.73;;;10.60;99.90;;;;;;5053240;28;20628;-74
2023/05/08 03:37:27;;;;;;;19.65;16.67;;;10.60;99.90;;;;;;5063109;28;20082;-76
2023/05/08 03:39:57;;;;;;;23.13;17.13;;;10.60;99.90;;;;;;5050147;28;20041;-74
2023/05/08 03:42:24;;;;;;;20.58;16.52;;;10.60;99.90;;;;;;5042716;28;20048;-74
2023/05/08 03:44:50;;;;;;;19.60;16.27;;;10.50;99.90;;;;;;5058128;28;20074;-74
2023/05/08 03:47:24;;;;;;;20.05;16.45;;;10.50;99.90;;;;;;5060834;28;20150;-74
2023/05/08 03:49:51;;;;;;;19.23;15.77;;;10.50;99.90;;;;;;5057775;28;20529;-74
2023/05/08 03:52:17;;;;;;;20.55;16.20;;;10.50;99.90;;;;;;5055318;28;20127;-74
2023/05/08 03:54:43;;;;;;;18.65;16.05;;;10.50;99.90;;;;;;5068205;28;20101;-73
2023/05/08 03:57:09;;;;;;;20.55;17.00;;;10.50;99.90;;;;;;5058687;28;20402;-74
2023/05/08 03:59:35;;;;;;;20.10;15.90;;;10.50;99.90;;;;;;5058360;28;20032;-75
2023/05/08 04:02:28;;;;;;;23.15;15.93;;;10.40;99.90;;;;;;5045180;28;20059;-75
2023/05/08 04:05:19;;;;;;;18.25;15.40;;;10.40;99.90;;;;;;5066222;28;20067;-75
2023/05/08 04:07:55;;;;;;;20.73;15.55;;;10.40;99.90;;;;;;5059140;28;20323;-74
2023/05/08 04:10:32;;;;;;;;;;;10.30;99.90;;;;;;5063664;28;20410;-73
2023/05/08 04:13:06;;;;;;;19.85;15.52;;;10.30;99.90;;;;;;5057698;28;19923;-74
2023/05/08 04:15:37;;;;;;;20.83;16.98;;;10.30;99.90;;;;;;5063797;28;20149;-74
2023/05/08 04:18:09;;;;;;;20.33;16.08;;;10.30;99.90;;;;;;5054595;28;20037;-76
2023/05/08 04:20:40;;;;;;;20.25;16.10;;;10.30;99.90;;;;;;5062715;28;20055;-75
2023/05/08 04:23:07;;;;;;;23.00;16.00;;;10.30;99.90;;;;;;5045991;28;20047;-75
2023/05/08 04:25:37;;;;;;;20.95;16.63;;;10.30;99.90;;;;;;5040255;28;20472;-73
2023/05/08 04:28:04;;;;;;;19.45;16.05;;;10.30;99.90;;;;;;5065282;28;20044;-75
2023/05/08 04:30:32;;;;;;;22.70;17.20;;;10.30;99.90;;;;;;5055523;28;20270;-75
2023/05/08 04:32:59;;;;;;;21.45;17.13;;;10.30;99.90;;;;;;5056267;28;20087;-74
2023/05/08 04:35:25;;;;;;;19.90;16.42;;;10.30;99.90;;;;;;5067964;28;20083;-74
2023/05/08 04:37:51;;;;;;;21.33;16.33;;;10.30;99.90;;;;;;5026038;28;20115;-74
2023/05/08 04:40:17;;;;;;;22.05;16.50;;;10.30;99.90;;;;;;5064798;28;21081;-75
2023/05/08 04:42:45;;;;;;;19.88;16.02;;;10.30;99.90;;;;;;5038010;28;20163;-75
2023/05/08 04:45:15;;;;;;;20.23;16.35;;;10.30;99.90;;;;;;5062795;28;20127;-74
2023/05/08 04:47:40;;;;;;;20.38;16.40;;;10.30;99.90;;;;;;5046037;28;20133;-74
2023/05/08 04:50:08;;;;;;;19.63;15.95;;;10.40;99.90;;;;;;5033529;28;20417;-76
2023/05/08 04:52:34;;;;;;;22.85;17.55;;;10.40;99.90;;;;;;5035276;28;20048;-76
2023/05/08 04:54:59;;;;;;;21.95;16.40;;;10.40;99.90;;;;;;5047406;28;20055;-74
2023/05/08 04:57:25;;;;;;;24.25;18.33;;;10.40;99.90;;;;;;5053049;28;20072;-74
2023/05/08 04:59:51;;;;;;;22.17;16.90;;;10.50;99.90;;;;;;5067149;28;20222;-75
2023/05/08 05:02:25;;;;;;;20.98;17.02;;;10.50;99.90;;;;;;5026721;28;20051;-74
2023/05/08 05:04:51;;;;;;;22.67;16.83;;;10.50;99.90;;;;;;5041056;28;20131;-73
2023/05/08 05:07:19;;;;;;;23.27;17.85;;;10.50;99.90;;;;;;5049772;28;20674;-76
2023/05/08 05:09:45;;;;;;;21.05;16.38;;;10.60;99.90;;;;;;5038336;28;20474;-74
2023/05/08 05:12:11;;;;;;;19.65;15.52;;;10.60;99.90;;;;;;5049500;28;20048;-73
2023/05/08 05:14:38;;;;;;;21.42;16.95;;;10.60;99.90;;;;;;5056878;28;20192;-73
2023/05/08 05:17:04;;;;;;;23.30;17.90;;;10.70;99.90;;;;;;5038626;28;20048;-75
2023/05/08 05:19:29;;;;;;;25.02;18.02;;;10.80;99.90;;;;;;5051784;28;20040;-75
2023/05/08 05:21:55;;;;;;;22.70;17.70;;;11.30;99.90;;;;;;5017871;28;20048;-74
2023/05/08 05:24:21;;;;;;;22.60;17.88;;;10.80;99.90;;;;;;5048499;28;20185;-74
2023/05/08 05:26:47;;;;;;;26.75;18.10;;;10.90;99.90;;;;;;5040841;28;20486;-74
2023/05/08 05:29:13;;;;;;;21.67;17.63;;;10.90;99.90;;;;;;5038287;28;20495;-74
2023/05/08 05:31:39;;;;;;;23.20;18.05;;;11.00;99.90;;;;;;5047028;28;20098;-75
2023/05/08 05:34:10;;;;;;;23.15;18.60;;;11.00;99.90;;;;;;5039056;28;20118;-74
2023/05/08 05:36:36;;;;;;;27.92;18.95;;;11.10;99.90;;;;;;5016978;28;20040;-74
2023/05/08 05:39:02;;;;;;;24.48;19.25;;;11.10;99.90;;;;;;5048813;28;20036;-74
2023/05/08 05:41:29;;;;;;;24.23;19.85;;;11.10;99.90;;;;;;5047534;28;20092;-76
2023/05/08 05:43:54;;;;;;;23.85;18.90;;;11.20;99.90;;;;;;5058373;28;20392;-74
2023/05/08 05:46:20;;;;;;;25.05;19.00;;;11.20;99.90;;;;;;5058597;28;20121;-74
2023/05/08 05:48:46;;;;;;;24.42;19.13;;;11.30;99.90;;;;;;5047750;28;20048;-74
2023/05/08 05:51:12;;;;;;;25.25;19.83;;;11.40;99.90;;;;;;5041079;28;20059;-74
2023/05/08 05:53:38;;;;;;;25.60;19.60;;;11.50;99.90;;;;;;5051643;28;20139;-74
2023/05/08 05:56:04;;;;;;;25.38;18.95;;;11.50;99.90;;;;;;5047704;28;20052;-75
2023/05/08 05:58:30;;;;;;;25.30;19.65;;;11.60;99.90;;;;;;5034474;28;20098;-73
2023/05/08 06:01:00;;;;;;;25.60;19.75;;;11.60;99.90;;;;;;5037859;28;20048;-76
2023/05/08 06:03:26;;;;;;;24.95;20.10;;;11.70;99.90;;;;;;5051230;28;20151;-75
2023/05/08 06:05:52;;;;;;;25.95;19.77;;;11.90;99.90;;;;;;5020053;28;20051;-73
2023/05/08 06:08:18;;;;;;;26.65;19.85;;;11.90;99.90;;;;;;5049447;28;20374;-74
2023/05/08 06:10:44;;;;;;;24.70;19.35;;;11.90;99.90;;;;;;5049145;28;20060;-75
2023/05/08 06:13:10;;;;;;;25.05;20.20;;;12.00;99.90;;;;;;5037381;28;20051;-74
2023/05/08 06:15:35;;;;;;;26.25;20.05;;;12.10;99.90;;;;;;5048147;28;20109;-74
2023/05/08 06:18:01;;;;;;;26.55;20.77;;;12.20;99.90;;;;;;5056440;28;20052;-73
2023/05/08 06:20:27;;;;;;;27.95;20.88;;;12.30;99.90;;;;;;5046261;28;20045;-74
2023/05/08 06:22:53;;;;;;;28.42;21.23;;;12.40;99.90;;;;;;5025909;28;20121;-74
2023/05/08 06:25:20;;;;;;;26.92;21.95;;;12.50;99.90;;;;;;5033651;28;20067;-73
2023/05/08 06:27:45;;;;;;;30.02;20.90;;;12.60;99.90;;;;;;5029385;28;20079;-75
2023/05/08 06:30:11;;;;;;;24.58;21.08;;;12.70;99.90;;;;;;5034412;28;20515;-73
2023/05/08 06:32:37;;;;;;;24.70;20.20;;;12.80;99.90;;;;;;5042416;28;20040;-73
2023/05/08 06:35:03;;;;;;;24.98;20.30;;;12.90;99.90;;;;;;5047624;28;20066;-75
2023/05/08 06:37:35;;;;;;;25.02;20.40;;;13.00;99.90;;;;;;5041306;28;20230;-73
2023/05/08 06:40:00;;;;;;;23.70;19.13;;;13.20;99.90;;;;;;5032206;28;20044;-73
2023/05/08 06:42:26;;;;;;;24.70;19.60;;;13.30;99.90;;;;;;5049160;28;20048;-74
2023/05/08 06:44:52;;;;;;;22.92;18.60;;;13.40;99.90;;;;;;5049429;28;20543;-73
2023/05/08 06:47:18;;;;;;;25.42;20.27;;;13.50;99.90;;;;;;5039883;28;20110;-75
2023/05/08 06:49:44;;;;;;;21.95;18.52;;;13.60;99.90;;;;;;5051336;28;20056;-75
2023/05/08 06:52:10;;;;;;;24.75;18.83;;;13.70;99.90;;;;;;5047578;28;20048;-74
2023/05/08 06:54:36;;;;;;;22.88;18.40;;;13.80;99.90;;;;;;5047833;28;20079;-76
2023/05/08 06:57:02;;;;;;;21.38;18.98;;;14.00;99.90;;;;;;5021923;28;20123;-74
2023/05/08 06:59:27;;;;;;;22.73;19.17;;;14.10;99.90;;;;;;5034894;28;20036;-74
2023/05/08 07:01:53;;;;;;;22.50;18.08;;;14.20;99.90;;;;;;5049289;28;20303;-74
2023/05/08 07:04:19;;;;;;;23.25;18.60;;;14.40;99.90;;;;;;5036978;28;21103;-73
2023/05/08 07:06:45;;;;;;;21.35;18.00;;;14.50;99.90;;;;;;5047905;28;20059;-74
2023/05/08 07:09:11;;;;;;;21.73;19.20;;;14.60;99.90;;;;;;5037712;28;20232;-74
2023/05/08 07:11:37;;;;;;;21.77;18.15;;;14.70;99.90;;;;;;5023861;28;20070;-74
2023/05/08 07:14:03;;;;;;;20.20;17.88;;;14.90;99.90;;;;;;5037122;28;20102;-73
2023/05/08 07:16:29;;;;;;;21.00;18.27;;;14.90;99.90;;;;;;5037770;28;20109;-74
2023/05/08 07:18:54;;;;;;;19.95;17.77;;;15.10;99.90;;;;;;5053706;28;20371;-73
2023/05/08 07:21:21;;;;;;;21.13;18.02;;;15.30;99.90;;;;;;5036005;28;20101;-75
2023/05/08 07:23:49;;;;;;;21.05;17.83;;;15.60;99.90;;;;;;5053794;28;20052;-74
2023/05/08 07:26:15;;;;;;;19.13;17.10;;;15.70;99.90;;;;;;5043483;28;20143;-73
2023/05/08 07:28:40;;;;;;;19.52;17.42;;;15.80;99.90;;;;;;5027894;28;20044;-74
2023/05/08 07:31:06;;;;;;;18.75;16.77;;;16.00;99.90;;;;;;5052627;28;20052;-75
2023/05/08 07:33:33;;;;;;;18.95;16.92;;;16.10;99.90;;;;;;5043680;28;20094;-77
2023/05/08 07:35:59;;;;;;;20.00;17.30;;;16.20;99.90;;;;;;5023883;28;20044;-76
2023/05/08 07:38:25;;;;;;;19.25;17.17;;;16.30;99.90;;;;;;5053715;28;20147;-75
2023/05/08 07:40:58;;;;;;;20.48;17.67;;;16.40;99.90;;;;;;5045367;28;20059;-76
2023/05/08 07:43:24;;;;;;;18.88;16.88;;;16.50;99.90;;;;;;5041526;28;20458;-75
2023/05/08 07:45:50;;;;;;;18.98;16.98;;;16.70;99.90;;;;;;5049033;28;20127;-74
2023/05/08 07:48:16;;;;;;;19.58;17.48;;;16.80;99.90;;;;;;5052440;28;20121;-74
2023/05/08 07:50:41;;;;;;;18.98;17.08;;;16.90;99.90;;;;;;5055800;28;20045;-77
2023/05/08 07:53:07;;;;;;;19.85;17.75;;;17.00;99.90;;;;;;5041690;28;20135;-77
2023/05/08 07:55:33;;;;;;;20.10;17.33;;;17.20;99.90;;;;;;5057757;28;20052;-74
2023/05/08 07:58:05;;;;;;;19.38;17.38;;;17.40;99.90;;;;;;5043332;28;20051;-75
2023/05/08 08:00:31;;;;;;;19.58;16.35;;;17.50;99.90;;;;;;5044017;28;20496;-75
2023/05/08 08:02:57;;;;;;;18.70;16.80;;;17.70;99.90;;;;;;5054865;28;20048;-76
2023/05/08 08:05:22;;;;;;;17.20;15.52;;;17.90;99.90;;;;;;5059496;28;20044;-75
2023/05/08 08:07:48;;;;;;;19.30;16.80;;;18.10;99.90;;;;;;5076216;28;20721;-75
2023/05/08 08:10:14;;;;;;;18.38;16.38;;;18.30;99.90;;;;;;5046288;28;20045;-77
2023/05/08 08:12:40;;;;;;;18.42;16.38;;;18.50;99.90;;;;;;5051580;28;20044;-75
2023/05/08 08:15:07;;;;;;;17.42;15.43;;;18.60;99.90;;;;;;5057300;28;20044;-76
2023/05/08 08:17:33;;;;;;;17.85;15.95;;;18.90;99.90;;;;;;5042399;28;20225;-74
2023/05/08 08:19:59;;;;;;;17.40;15.50;;;19.00;99.90;;;;;;5054198;28;20208;-75
2023/05/08 08:22:25;;;;;;;17.52;15.70;;;18.90;99.90;;;;;;5057431;28;20205;-74
2023/05/08 08:24:52;;;;;;;18.70;16.80;;;19.10;99.90;;;;;;5055393;28;20488;-74
2023/05/08 08:27:18;;;;;;;18.98;17.08;;;19.30;99.90;;;;;;5041310;28;20044;-74
2023/05/08 08:29:44;;;;;;;20.77;16.88;;;19.30;99.90;;;;;;5049018;28;20560;-74
2023/05/08 08:32:10;;;;;;;17.40;15.60;;;19.50;99.90;;;;;;5035617;28;20044;-76
2023/05/08 08:34:35;;;;;;;18.40;16.60;;;19.70;99.90;;;;;;5036311;28;20063;-76
2023/05/08 08:37:01;;;;;;;18.02;16.13;;;19.90;99.90;;;;;;5036938;28;20479;-76
2023/05/08 08:39:33;;;;;;;17.90;16.10;;;19.80;99.90;;;;;;5048538;28;20572;-76
2023/05/08 08:41:59;;;;;;;18.10;16.30;;;19.90;99.90;;;;;;5050828;28;20040;-74
2023/05/08 08:44:25;;;;;;;18.17;15.63;;;20.00;99.90;;;;;;5045679;28;20259;-75
2023/05/08 08:46:52;;;;;;;18.33;16.40;;;20.20;99.90;;;;;;5031440;28;20790;-76
2023/05/08 08:49:35;;;;;;;18.77;16.83;;;20.10;99.90;;;;;;5032764;28;20082;-75
2023/05/08 08:52:27;;;;;;;19.23;17.23;;;20.30;99.90;;;;;;5055726;28;20154;-75
2023/05/08 08:54:56;;;;;;;17.80;16.00;;;20.40;99.90;;;;;;5026261;28;20059;-76
2023/05/08 08:57:23;;;;;;;18.98;16.50;;;20.40;99.90;;;;;;5038483;28;20414;-76
2023/05/08 08:59:49;;;;;;;20.02;16.65;;;20.30;99.90;;;;;;5055333;28;20048;-75
2023/05/08 09:02:18;;;;;;;19.40;17.40;;;20.30;99.90;;;;;;5041325;28;20040;-74
2023/05/08 09:04:44;;;;;;;18.90;16.95;;;20.40;99.90;;;;;;5052120;28;20059;-75
2023/05/08 09:07:11;;;;;;;18.15;16.25;;;20.70;99.90;;;;;;5035979;28;20044;-74
2023/05/08 09:09:43;;;;;;;18.15;16.25;;;20.80;99.90;;;;;;5057423;28;20514;-76
2023/05/08 09:12:09;;;;;;;18.33;16.35;;;21.10;99.90;;;;;;5053094;28;20128;-76
2023/05/08 09:14:35;;;;;;;18.42;16.63;;;21.20;99.90;;;;;;5022004;28;20122;-78
2023/05/08 09:17:01;;;;;;;17.83;16.02;;;21.50;99.90;;;;;;5042259;28;20535;-76
2023/05/08 09:19:27;;;;;;;17.95;16.00;;;21.70;99.90;;;;;;5043194;28;20045;-75
2023/05/08 09:21:53;;;;;;;18.45;16.65;;;21.90;99.90;;;;;;5059895;28;20160;-77
2023/05/08 09:24:19;;;;;;;18.20;16.23;;;22.00;99.90;;;;;;5046411;28;22062;-75
2023/05/08 09:26:45;;;;;;;18.80;16.80;;;22.00;99.90;;;;;;5035834;28;21779;-75
2023/05/08 09:29:20;;;;;;;16.92;15.20;;;22.30;99.90;;;;;;5047516;28;21268;-76
2023/05/08 09:31:48;;;;;;;18.10;16.30;;;22.30;99.90;;;;;;5055693;28;20532;-75
2023/05/08 09:34:32;;;;;;;18.95;17.05;;;22.70;99.90;;;;;;5031261;28;20537;-77
2023/05/08 09:37:12;;;;;;;19.50;17.52;;;22.80;99.90;;;;;;5045757;28;20048;-75
2023/05/08 09:39:40;;;;;;;17.98;16.17;;;23.00;99.90;;;;;;5062553;28;20048;-75
2023/05/08 09:42:07;;;;;;;17.60;15.70;;;23.10;99.90;;;;;;5057650;28;20476;-76
2023/05/08 09:44:52;;;;;;;18.77;16.88;;;23.40;99.90;;;;;;5043759;28;20052;-76
2023/05/08 09:47:22;;;;;;;18.48;16.50;;;23.60;99.90;;;;;;5043564;28;20044;-77
2023/05/08 09:49:59;;;;;;;17.88;16.08;;;23.60;99.90;;;;;;5043469;28;20048;-76
2023/05/08 09:52:25;;;;;;;18.52;16.65;;;23.70;99.90;;;;;;5040409;28;20765;-77
2023/05/08 09:55:09;;;;;;;18.70;16.70;;;23.60;99.90;;;;;;5048284;28;20072;-78
2023/05/08 09:57:38;;;;;;;19.23;17.27;;;23.80;99.90;;;;;;5048195;28;20193;-76
2023/05/08 10:00:09;;;;;;;19.50;17.50;;;23.80;99.90;;;;;;5038856;28;20045;-78
2023/05/08 10:02:36;;;;;;;20.17;18.17;;;23.50;99.90;;;;;;5057962;28;20048;-76
2023/05/08 10:05:04;;;;;;;20.10;17.90;;;23.10;99.90;;;;;;5041731;28;20044;-75
2023/05/08 10:07:37;;;;;;;19.48;17.58;;;22.80;99.90;;;;;;5060035;28;20044;-76
2023/05/08 10:10:05;;;;;;;20.40;18.30;;;22.40;99.90;;;;;;5061476;28;20047;-75
2023/05/08 10:12:31;;;;;;;21.58;19.23;;;22.10;99.90;;;;;;5042178;28;20056;-75
2023/05/08 10:14:58;;;;;;;21.40;19.20;;;21.90;99.90;;;;;;5042615;28;20048;-75
2023/05/08 10:17:36;;;;;;;20.65;18.55;;;21.60;99.90;;;;;;5043735;28;20055;-76
2023/05/08 10:20:06;;;;;;;20.65;18.65;;;21.60;99.90;;;;;;5037390;28;20047;-77
2023/05/08 10:22:35;;;;;;;21.52;19.23;;;21.40;99.90;;;;;;5042259;28;20048;-75
2023/05/08 10:25:02;;;;;;;22.38;19.42;;;21.30;99.90;;;;;;5046603;28;20087;-78
2023/05/08 10:27:47;;;;;;;21.50;19.25;;;21.10;99.90;;;;;;5037194;28;20376;-76
2023/05/08 10:30:17;;;;;;;21.42;19.10;;;21.40;99.90;;;;;;5046103;28;20372;-77
2023/05/08 10:32:49;;;;;;;22.77;20.42;;;21.60;99.90;;;;;;5038972;28;20058;-76
2023/05/08 10:35:16;;;;;;;22.30;20.08;;;21.80;99.90;;;;;;5049416;28;20055;-76
2023/05/08 10:37:47;;;;;;;20.77;18.60;;;21.90;99.90;;;;;;5052850;28;20044;-75
2023/05/08 10:40:20;;;;;;;21.98;19.75;;;22.10;99.90;;;;;;5050775;28;20118;-76
2023/05/08 10:42:47;;;;;;;22.40;20.17;;;22.50;99.90;;;;;;5043404;28;20049;-75
2023/05/08 10:45:13;;;;;;;22.08;19.55;;;22.70;99.90;;;;;;5045029;28;20398;-77
2023/05/08 10:48:02;;;;;;;21.42;19.23;;;22.80;99.90;;;;;;5051410;28;20105;-76
2023/05/08 10:51:06;;;;;;;22.17;19.77;;;22.90;99.90;;;;;;5054678;28;20135;-76
2023/05/08 10:53:56;;;;;;;23.65;20.90;;;23.00;99.90;;;;;;5068773;28;20528;-76
2023/05/08 10:56:26;;;;;;;22.55;20.17;;;23.00;99.90;;;;;;5053692;28;20044;-76
2023/05/08 10:58:58;;;;;;;22.23;19.92;;;22.90;99.90;;;;;;5044554;28;20075;-78
2023/05/08 11:01:25;;;;;;;22.02;19.63;;;22.80;99.90;;;;;;5055704;28;20047;-74
2023/05/08 11:03:51;;;;;;;22.20;19.80;;;22.60;99.90;;;;;;5050538;28;20110;-77
2023/05/08 11:06:44;;;;;;;22.60;20.17;;;22.60;99.90;;;;;;5048625;28;20143;-77
2023/05/08 11:09:21;;;;;;;22.98;20.58;;;22.70;99.90;;;;;;5057210;28;20123;-75
2023/05/08 11:12:15;;;;;;;23.20;20.75;;;22.70;99.90;;;;;;5054411;28;20075;-76
2023/05/08 11:14:44;;;;;;;24.50;19.98;;;22.60;99.90;;;;;;5060591;28;20576;-78
2023/05/08 11:17:10;;;;;;;21.45;19.25;;;22.90;99.90;;;;;;5029061;28;20076;-75
2023/05/08 11:19:37;;;;;;;25.05;20.58;;;23.00;99.90;;;;;;5055844;28;20778;-78
2023/05/08 11:22:14;;;;;;;22.42;20.02;;;23.00;99.90;;;;;;5056408;28;20111;-76
2023/05/08 11:24:48;;;;;;;21.85;19.55;;;23.20;99.90;;;;;;5063771;28;20128;-75
2023/05/08 11:27:14;;;;;;;22.42;20.02;;;23.10;99.90;;;;;;5054128;28;20124;-75
2023/05/08 11:29:40;;;;;;;22.48;19.92;;;23.10;99.90;;;;;;5052146;28;20055;-76
2023/05/08 11:32:06;;;;;;;21.90;19.30;;;23.10;99.90;;;;;;5059900;28;20136;-75
2023/05/08 11:34:41;;;;;;;21.95;19.65;;;23.10;99.90;;;;;;5015375;28;20159;-77
2023/05/08 11:37:16;;;;;;;21.98;19.75;;;23.20;99.90;;;;;;5048656;28;20067;-76
2023/05/08 11:39:46;;;;;;;22.33;19.52;;;23.30;99.90;;;;;;5051844;28;20053;-75
2023/05/08 11:42:24;;;;;;;21.48;19.13;;;23.40;99.90;;;;;;5053739;28;20075;-75
2023/05/08 11:45:09;;;;;;;20.65;18.55;;;23.60;99.90;;;;;;5059294;28;20051;-75
2023/05/08 11:47:44;;;;;;;21.52;19.20;;;23.80;99.90;;;;;;5059854;28;20059;-75
2023/05/08 11:50:11;;;;;;;20.50;18.30;;;23.90;99.90;;;;;;5057317;28;20040;-74
2023/05/08 11:52:39;;;;;;;19.58;17.42;;;24.10;99.90;;;;;;5056394;28;20055;-76
2023/05/08 11:55:08;;;;;;;20.50;18.25;;;24.30;99.90;;;;;;5055676;28;20056;-79
2023/05/08 11:57:34;;;;;;;20.05;17.88;;;24.40;99.90;;;;;;5052327;28;20048;-75
2023/05/08 12:00:08;;;;;;;19.65;17.75;;;24.50;99.90;;;;;;5045162;28;20037;-75
2023/05/08 12:02:39;;;;;;;19.67;17.65;;;24.70;99.90;;;;;;5061345;28;20056;-76
2023/05/08 12:05:07;;;;;;;15.00;13.40;;;24.90;99.90;;;;;;5063292;28;20072;-76
2023/05/08 12:07:45;;;;;;;16.45;14.73;;;24.90;99.90;;;;;;5061835;28;20120;-77
2023/05/08 12:10:11;;;;;;;19.52;17.38;;;24.90;99.90;;;;;;5039804;28;20119;-75
2023/05/08 12:12:41;;;;;;;18.27;16.27;;;24.70;99.90;;;;;;5058592;28;20440;-75
2023/05/08 12:15:14;;;;;;;25.55;19.67;;;24.70;99.90;;;;;;5056915;28;20047;-75
2023/05/08 12:17:40;;;;;;;23.40;21.10;;;24.70;99.90;;;;;;5059251;28;20051;-75
2023/05/08 12:20:17;;;;;;;25.10;22.58;;;24.50;99.90;;;;;;5059524;28;20049;-78
2023/05/08 12:22:51;;;;;;;24.42;21.95;;;24.40;99.90;;;;;;5057810;28;20457;-78
2023/05/08 12:25:17;;;;;;;23.92;21.35;;;24.30;99.90;;;;;;5057587;28;20039;-75
2023/05/08 12:27:44;;;;;;;24.08;21.42;;;24.30;99.90;;;;;;5056335;28;20534;-76
2023/05/08 12:30:12;;;;;;;24.55;21.95;;;24.20;99.90;;;;;;5049903;28;20052;-75
2023/05/08 12:32:42;;;;;;;24.98;22.27;;;24.20;99.90;;;;;;5064151;28;20041;-76
2023/05/08 12:35:11;;;;;;;24.35;21.63;;;24.00;99.90;;;;;;5037843;28;20505;-77
2023/05/08 12:37:37;;;;;;;24.15;21.10;;;24.00;99.90;;;;;;5050155;28;20051;-77
2023/05/08 12:40:20;;;;;;;22.40;20.05;;;23.80;99.90;;;;;;5062065;28;20044;-75
2023/05/08 12:42:50;;;;;;;22.88;19.23;;;23.80;99.90;;;;;;5048059;28;20052;-75